createdAt,value
2022-12-12T00:01:35.226Z,0.83
2022-12-12T00:04:04.338Z,0.84
2022-12-12T00:06:32.356Z,0.86
2022-12-12T00:09:00.250Z,0.87
2022-12-12T00:11:28.882Z,0.85
2022-12-12T00:13:57.362Z,0.85
2022-12-12T00:16:26.185Z,0.83
2022-12-12T00:18:55.012Z,0.75
2022-12-12T00:21:26.950Z,0.83
2022-12-12T00:23:58.650Z,0.83
2022-12-12T00:26:32.613Z,0.83
2022-12-12T00:29:01.591Z,0.83
2022-12-12T00:31:29.767Z,0.81
2022-12-12T00:33:57.659Z,0.83
2022-12-12T00:36:29.139Z,0.84
2022-12-12T00:38:58.278Z,0.84
2022-12-12T00:41:27.003Z,0.83
2022-12-12T00:43:57.478Z,0.84
2022-12-12T00:46:26.434Z,0.86
2022-12-12T00:48:56.427Z,0.84
2022-12-12T00:51:26.828Z,0.83
2022-12-12T00:53:58.154Z,0.84
2022-12-12T00:56:27.560Z,0.86
2022-12-12T00:58:55.855Z,0.88
2022-12-12T01:01:26.827Z,0.83
2022-12-12T01:03:59.588Z,0.85
2022-12-12T01:06:28.832Z,0.87
2022-12-12T01:08:57.427Z,0.86
2022-12-12T01:11:25.783Z,0.87
2022-12-12T01:13:54.938Z,0.87
2022-12-12T01:16:24.479Z,0.87
2022-12-12T01:18:52.422Z,0.85
2022-12-12T01:21:21.160Z,0.86
2022-12-12T01:23:49.615Z,0.86
2022-12-12T01:26:20.816Z,0.89
2022-12-12T01:28:49.016Z,0.87
2022-12-12T01:31:17.238Z,0.89
2022-12-12T01:33:46.577Z,0.88
2022-12-12T01:36:16.932Z,0.86
2022-12-12T01:38:49.427Z,0.91
2022-12-12T01:41:21.572Z,0.91
2022-12-12T01:43:50.253Z,0.88
2022-12-12T01:46:44.142Z,0.86
2022-12-12T01:49:26.711Z,0.89
2022-12-12T01:52:01.146Z,0.86
2022-12-12T01:54:34.648Z,0.85
2022-12-12T01:57:07.284Z,0.89
2022-12-12T01:59:36.748Z,0.86
2022-12-12T02:02:06.156Z,0.86
2022-12-12T02:04:35.219Z,0.87
2022-12-12T02:07:03.813Z,0.88
2022-12-12T02:09:33.956Z,0.86
2022-12-12T02:12:02.193Z,0.90
2022-12-12T02:14:33.921Z,0.92
2022-12-12T02:17:41.901Z,0.88
2022-12-12T02:20:34.424Z,0.87
2022-12-12T02:23:17.483Z,0.88
2022-12-12T02:26:15.759Z,0.89
2022-12-12T02:29:26.200Z,0.90
2022-12-12T02:32:02.384Z,0.87
2022-12-12T02:34:52.565Z,0.88
2022-12-12T02:37:37.867Z,0.91
2022-12-12T02:40:25.299Z,0.91
2022-12-12T02:43:18.819Z,0.88
2022-12-12T02:46:01.029Z,0.95
2022-12-12T02:48:37.783Z,0.89
2022-12-12T02:51:09.572Z,0.89
2022-12-12T02:53:37.314Z,0.90
2022-12-12T02:56:44.226Z,0.91
2022-12-12T02:59:19.130Z,0.89
2022-12-12T03:02:00.909Z,0.89
2022-12-12T03:05:26.022Z,0.89
2022-12-12T03:08:23.193Z,0.84
2022-12-12T03:11:25.326Z,0.86
2022-12-12T03:14:08.493Z,0.94
2022-12-12T03:16:49.300Z,0.91
2022-12-12T03:19:26.225Z,0.88
2022-12-12T03:22:12.469Z,0.91
2022-12-12T03:25:06.301Z,0.91
2022-12-12T03:27:48.449Z,0.95
2022-12-12T03:30:19.146Z,0.91
2022-12-12T03:33:00.707Z,0.96
2022-12-12T03:35:44.697Z,0.94
2022-12-12T03:38:25.444Z,0.95
2022-12-12T03:41:00.130Z,0.85
2022-12-12T03:43:32.389Z,0.95
2022-12-12T03:46:21.300Z,0.94
2022-12-12T03:49:04.274Z,0.96
2022-12-12T03:51:38.718Z,0.94
2022-12-12T03:54:18.649Z,0.93
2022-12-12T03:57:17.394Z,0.85
2022-12-12T04:00:02.259Z,0.89
2022-12-12T04:02:43.868Z,0.94
2022-12-12T04:05:34.087Z,0.94
2022-12-12T04:08:06.924Z,0.92
2022-12-12T04:11:24.580Z,0.92
2022-12-12T04:14:09.513Z,0.94
2022-12-12T04:16:43.290Z,0.93
2022-12-12T04:19:44.600Z,0.88
2022-12-12T04:22:39.981Z,0.88
2022-12-12T04:25:36.389Z,0.94
2022-12-12T04:28:07.870Z,0.91
2022-12-12T04:30:37.187Z,0.94
2022-12-12T04:33:15.327Z,0.95
2022-12-12T04:35:48.236Z,0.93
2022-12-12T04:38:23.118Z,0.96
2022-12-12T04:40:55.260Z,1.02
2022-12-12T04:43:33.519Z,1.04
2022-12-12T04:46:07.906Z,0.99
2022-12-12T04:48:53.754Z,0.98
2022-12-12T04:51:54.857Z,1.00
2022-12-12T04:54:32.772Z,1.02
2022-12-12T04:57:04.984Z,1.00
2022-12-12T04:59:33.786Z,1.00
2022-12-12T05:02:19.692Z,1.02
2022-12-12T05:05:12.492Z,1.00
2022-12-12T05:07:44.458Z,0.97
2022-12-12T05:10:17.902Z,0.96
2022-12-12T05:12:47.639Z,0.98
2022-12-12T05:15:20.751Z,0.94
2022-12-12T05:17:55.770Z,0.94
2022-12-12T05:20:23.985Z,0.96
2022-12-12T05:22:51.860Z,1.04
2022-12-12T05:25:19.719Z,1.02
2022-12-12T05:27:49.147Z,0.95
2022-12-12T05:30:17.339Z,1.00
2022-12-12T05:32:45.361Z,0.98
2022-12-12T05:35:13.931Z,1.05
2022-12-12T05:37:45.430Z,1.01
2022-12-12T05:40:17.502Z,0.99
2022-12-12T05:42:45.374Z,0.96
2022-12-12T05:45:13.381Z,0.93
2022-12-12T05:47:42.162Z,0.98
2022-12-12T05:50:10.821Z,1.00
2022-12-12T05:52:38.867Z,0.99
2022-12-12T05:55:07.492Z,0.98
2022-12-12T05:57:35.425Z,0.99
2022-12-12T06:00:05.211Z,0.96
2022-12-12T06:02:33.303Z,0.96
2022-12-12T06:05:01.792Z,0.95
2022-12-12T06:07:31.091Z,0.94
2022-12-12T06:09:58.934Z,0.96
2022-12-12T06:12:27.276Z,0.98
2022-12-12T06:14:55.089Z,0.98
2022-12-12T06:17:22.893Z,0.92
2022-12-12T06:19:51.193Z,0.96
2022-12-12T06:22:19.335Z,0.98
2022-12-12T06:24:50.056Z,0.99
2022-12-12T06:27:18.257Z,0.97
2022-12-12T06:29:46.166Z,1.10
2022-12-12T06:32:14.045Z,1.07
2022-12-12T06:34:42.312Z,1.00
2022-12-12T06:37:15.717Z,1.03
2022-12-12T06:39:45.788Z,1.04
2022-12-12T06:42:13.570Z,1.00
2022-12-12T06:44:41.330Z,0.95
2022-12-12T06:47:09.570Z,1.02
2022-12-12T06:49:37.531Z,1.01
2022-12-12T06:52:05.317Z,0.98
2022-12-12T06:54:33.597Z,1.02
2022-12-12T06:57:01.409Z,1.02
2022-12-12T06:59:30.601Z,0.94
2022-12-12T07:02:01.984Z,0.98
2022-12-12T07:04:29.823Z,0.93
2022-12-12T07:06:58.665Z,1.04
2022-12-12T07:09:26.599Z,1.02
2022-12-12T07:11:54.566Z,0.98
2022-12-12T07:14:22.683Z,1.00
2022-12-12T07:16:50.891Z,0.96
2022-12-12T07:19:18.688Z,0.91
2022-12-12T07:21:46.965Z,0.99
2022-12-12T07:24:16.065Z,0.97
2022-12-12T07:26:44.078Z,1.02
2022-12-12T07:29:12.256Z,1.02
2022-12-12T07:31:39.927Z,0.99
2022-12-12T07:34:07.774Z,1.08
2022-12-12T07:36:36.034Z,0.98
2022-12-12T07:39:04.024Z,1.11
2022-12-12T07:41:31.777Z,1.04
2022-12-12T07:44:01.272Z,0.96
2022-12-12T07:46:29.341Z,1.00
2022-12-12T07:48:57.864Z,1.03
2022-12-12T07:51:26.057Z,1.04
2022-12-12T07:53:53.899Z,1.03
2022-12-12T07:56:21.810Z,1.07
2022-12-12T07:58:50.071Z,1.04
2022-12-12T08:01:20.766Z,1.03
2022-12-12T08:03:50.014Z,1.05
2022-12-12T08:06:19.622Z,1.05
2022-12-12T08:08:48.933Z,1.04
2022-12-12T08:11:20.704Z,1.07
2022-12-12T08:13:48.870Z,1.04
2022-12-12T08:16:22.691Z,1.07
2022-12-12T08:18:50.755Z,0.99
2022-12-12T08:21:25.126Z,1.01
2022-12-12T08:24:02.734Z,1.08
2022-12-12T08:26:32.491Z,1.02
2022-12-12T08:29:00.698Z,1.03
2022-12-12T08:31:29.041Z,1.02
2022-12-12T08:33:58.017Z,1.00
2022-12-12T08:36:31.078Z,1.06
2022-12-12T08:39:04.154Z,1.00
2022-12-12T08:41:32.283Z,1.02
2022-12-12T08:44:00.624Z,0.99
2022-12-12T08:46:28.786Z,1.07
2022-12-12T08:48:56.788Z,1.10
2022-12-12T08:51:25.522Z,1.04
2022-12-12T08:53:54.332Z,1.04
2022-12-12T08:56:24.140Z,0.95
2022-12-12T08:58:52.642Z,1.00
2022-12-12T09:01:23.495Z,1.02
2022-12-12T09:03:54.287Z,1.03
2022-12-12T09:06:23.681Z,1.04
2022-12-12T09:08:56.841Z,1.04
2022-12-12T09:11:28.473Z,1.09
2022-12-12T09:13:56.480Z,1.06
2022-12-12T09:16:26.751Z,1.12
2022-12-12T09:18:54.989Z,1.13
2022-12-12T09:21:23.533Z,1.04
2022-12-12T09:23:51.351Z,1.00
2022-12-12T09:26:19.396Z,1.03
2022-12-12T09:28:47.373Z,1.05
2022-12-12T09:31:15.434Z,1.03
2022-12-12T09:33:43.837Z,1.10
2022-12-12T09:36:13.385Z,1.07
2022-12-12T09:41:31.105Z,1.03
2022-12-12T09:44:09.427Z,1.05
2022-12-12T09:46:45.029Z,1.07
2022-12-12T09:49:27.758Z,1.02
2022-12-12T09:51:56.978Z,1.07
2022-12-12T09:54:27.365Z,1.08
2022-12-12T09:57:08.202Z,1.20
2022-12-12T09:59:44.649Z,1.08
2022-12-12T10:03:03.256Z,1.11
2022-12-12T10:05:31.560Z,1.10
2022-12-12T10:08:19.398Z,1.18
2022-12-12T10:10:57.216Z,1.13
2022-12-12T10:13:31.852Z,1.10
2022-12-12T10:16:08.789Z,1.08
2022-12-12T10:18:54.010Z,1.09
2022-12-12T10:21:30.607Z,1.08
2022-12-12T10:24:15.958Z,1.06
2022-12-12T10:26:44.915Z,1.03
2022-12-12T10:29:18.419Z,1.07
2022-12-12T10:32:00.584Z,1.11
2022-12-12T10:35:03.710Z,1.09
2022-12-12T10:38:04.840Z,1.04
2022-12-12T10:40:47.662Z,1.08
2022-12-12T10:43:22.697Z,1.04
2022-12-12T10:46:19.787Z,1.11
2022-12-12T10:48:49.389Z,1.09
2022-12-12T10:51:20.980Z,1.16
2022-12-12T10:53:49.762Z,1.20
2022-12-12T10:56:24.136Z,1.15
2022-12-12T10:58:56.208Z,1.14
2022-12-12T11:02:08.322Z,1.15
2022-12-12T11:04:32.098Z,1.07
2022-12-12T11:07:00.672Z,1.15
2022-12-12T11:09:29.541Z,1.09
2022-12-12T11:12:11.120Z,1.09
2022-12-12T11:14:45.666Z,1.12
2022-12-12T11:17:23.959Z,1.07
2022-12-12T11:19:58.736Z,1.11
2022-12-12T11:22:30.936Z,1.05
2022-12-12T11:25:00.803Z,1.07
2022-12-12T11:27:41.274Z,1.03
2022-12-12T11:30:32.845Z,1.02
2022-12-12T11:33:03.809Z,0.97
2022-12-12T11:35:45.559Z,1.00
2022-12-12T11:38:22.777Z,1.00
2022-12-12T11:41:03.351Z,1.00
2022-12-12T11:43:38.938Z,0.97
2022-12-12T11:46:16.357Z,1.00
2022-12-12T11:48:48.086Z,1.00
2022-12-12T11:51:30.272Z,1.01
2022-12-12T11:53:58.582Z,0.98
2022-12-12T11:56:39.051Z,0.99
2022-12-12T11:59:18.779Z,0.98
2022-12-12T12:02:23.502Z,0.96
2022-12-12T12:05:18.471Z,0.95
2022-12-12T12:08:16.717Z,0.98
2022-12-12T12:11:07.773Z,0.94
2022-12-12T12:13:35.552Z,0.94
2022-12-12T12:16:23.798Z,0.97
2022-12-12T12:19:10.799Z,0.91
2022-12-12T12:21:56.310Z,0.97
2022-12-12T12:24:33.989Z,0.93
2022-12-12T12:27:10.761Z,0.96
2022-12-12T12:30:09.005Z,0.94
2022-12-12T12:33:05.705Z,0.97
2022-12-12T12:35:46.338Z,0.96
2022-12-12T12:38:39.029Z,0.93
2022-12-12T12:41:34.536Z,0.92
2022-12-12T12:44:14.848Z,0.95
2022-12-12T12:46:48.374Z,0.85
2022-12-12T12:49:26.302Z,0.90
2022-12-12T12:52:01.298Z,0.89
2022-12-12T12:54:39.466Z,0.84
2022-12-12T12:57:44.011Z,0.82
2022-12-12T13:00:18.234Z,0.89
2022-12-12T13:03:04.749Z,0.87
2022-12-12T13:06:14.858Z,0.89
2022-12-12T13:08:56.860Z,0.87
2022-12-12T13:11:34.662Z,0.76
2022-12-12T13:14:36.912Z,0.86
2022-12-12T13:17:08.264Z,0.84
2022-12-12T13:19:40.769Z,0.86
2022-12-12T13:22:11.431Z,0.88
2022-12-12T13:24:56.475Z,0.85
2022-12-12T13:27:36.847Z,0.85
2022-12-12T13:30:07.376Z,0.79
2022-12-12T13:32:59.323Z,0.88
2022-12-12T13:35:46.344Z,0.83
2022-12-12T13:38:27.905Z,0.83
2022-12-12T13:41:07.898Z,0.78
2022-12-12T13:43:46.037Z,0.83
2022-12-12T13:46:28.488Z,0.80
2022-12-12T13:48:59.850Z,0.82
2022-12-12T13:51:30.594Z,0.78
2022-12-12T13:54:12.636Z,0.80
2022-12-12T13:56:53.071Z,0.76
2022-12-12T13:59:25.325Z,0.80
2022-12-12T14:02:02.065Z,0.82
2022-12-12T14:04:40.084Z,0.82
2022-12-12T14:07:17.476Z,0.79
2022-12-12T14:09:51.606Z,0.79
2022-12-12T14:12:32.060Z,0.83
2022-12-12T14:15:27.759Z,0.82
2022-12-12T14:17:59.965Z,0.78
2022-12-12T14:20:37.667Z,0.83
2022-12-12T14:23:28.031Z,0.81
2022-12-12T14:25:57.128Z,0.78
2022-12-12T14:28:28.093Z,0.80
2022-12-12T14:30:59.634Z,0.84
2022-12-12T14:33:49.426Z,0.84
2022-12-12T14:36:32.544Z,0.83
2022-12-12T14:39:19.198Z,0.83
2022-12-12T14:41:48.359Z,0.80
2022-12-12T14:44:36.563Z,0.82
2022-12-12T14:47:10.110Z,0.82
2022-12-12T14:49:37.944Z,0.84
2022-12-12T14:52:06.470Z,0.85
2022-12-12T14:54:37.429Z,0.86
2022-12-12T14:57:08.092Z,0.87
2022-12-12T14:59:42.658Z,0.86
2022-12-12T15:02:35.084Z,0.85
2022-12-12T15:05:07.548Z,0.87
2022-12-12T15:07:41.132Z,0.87
2022-12-12T15:10:28.252Z,0.86
2022-12-12T15:12:56.577Z,0.88
2022-12-12T15:15:32.524Z,0.87
2022-12-12T15:18:01.708Z,0.89
2022-12-12T15:20:32.569Z,0.86
2022-12-12T15:23:07.699Z,0.93
2022-12-12T15:25:54.217Z,0.88
2022-12-12T15:28:25.223Z,0.86
2022-12-12T15:30:55.478Z,0.91
2022-12-12T15:33:28.027Z,0.87
2022-12-12T15:36:02.119Z,0.89
2022-12-12T15:38:33.941Z,0.90
2022-12-12T15:41:11.263Z,0.92
2022-12-12T15:43:43.492Z,0.82
2022-12-12T15:46:15.628Z,0.90
2022-12-12T15:48:47.935Z,0.88
2022-12-12T15:51:25.000Z,0.88
2022-12-12T15:53:55.668Z,0.89
2022-12-12T15:56:28.141Z,0.89
2022-12-12T15:59:16.935Z,0.87
2022-12-12T16:01:45.057Z,0.86
2022-12-12T16:04:13.207Z,0.82
2022-12-12T16:06:46.883Z,0.90
2022-12-12T16:09:25.115Z,0.86
2022-12-12T16:11:57.752Z,0.87
2022-12-12T16:14:42.912Z,0.83
2022-12-12T16:17:25.746Z,0.83
2022-12-12T16:20:05.643Z,0.85
2022-12-12T16:22:46.167Z,0.89
2022-12-12T16:25:20.205Z,0.88
2022-12-12T16:28:13.564Z,0.86
2022-12-12T16:30:44.118Z,0.87
2022-12-12T16:33:38.921Z,0.86
2022-12-12T16:36:10.139Z,0.86
2022-12-12T16:38:40.453Z,0.86
2022-12-12T16:41:13.353Z,0.88
2022-12-12T16:43:41.392Z,0.89
2022-12-12T16:46:23.316Z,0.92
2022-12-12T16:48:52.031Z,0.84
2022-12-12T16:51:41.610Z,0.92
2022-12-12T16:54:17.218Z,0.92
2022-12-12T16:56:52.722Z,0.89
2022-12-12T16:59:20.646Z,0.91
2022-12-12T17:01:48.990Z,0.89
2022-12-12T17:04:23.439Z,0.88
2022-12-12T17:06:51.693Z,0.85
2022-12-12T17:09:21.491Z,0.88
2022-12-12T17:11:52.203Z,0.88
2022-12-12T17:14:25.253Z,0.90
2022-12-12T17:16:56.484Z,0.90
2022-12-12T17:19:27.541Z,0.89
2022-12-12T17:21:55.715Z,0.88
2022-12-12T17:24:23.556Z,0.87
2022-12-12T17:26:51.384Z,0.91
2022-12-12T17:29:19.659Z,0.86
2022-12-12T17:31:47.886Z,0.90
2022-12-12T17:34:15.715Z,0.92
2022-12-12T17:36:47.067Z,0.92
2022-12-12T17:39:14.987Z,0.91
2022-12-12T17:41:43.084Z,0.92
2022-12-12T17:44:10.926Z,0.88
2022-12-12T17:46:38.972Z,0.89
2022-12-12T17:49:07.348Z,0.84
2022-12-12T17:51:37.833Z,0.86
2022-12-12T17:54:08.633Z,0.86
2022-12-12T17:56:36.918Z,0.85
2022-12-12T17:59:08.282Z,0.87
2022-12-12T18:01:36.559Z,0.89
2022-12-12T18:04:05.862Z,0.87
2022-12-12T18:06:36.283Z,0.85
2022-12-12T18:09:04.545Z,0.85
2022-12-12T18:11:33.949Z,0.85
2022-12-12T18:14:04.822Z,0.86
2022-12-12T18:16:33.930Z,0.84
2022-12-12T18:19:03.174Z,0.84
2022-12-12T18:21:59.704Z,0.83
2022-12-12T18:24:25.609Z,0.83
2022-12-12T18:26:54.489Z,0.85
2022-12-12T18:29:23.461Z,0.86
2022-12-12T18:31:51.602Z,0.82
2022-12-12T18:34:19.832Z,0.82
2022-12-12T18:36:49.668Z,0.81
2022-12-12T18:39:18.208Z,0.82
2022-12-12T18:41:47.069Z,0.84
2022-12-12T18:44:16.326Z,0.82
2022-12-12T18:46:44.564Z,0.81
2022-12-12T18:49:15.574Z,0.81
2022-12-12T18:51:45.411Z,0.81
2022-12-12T18:54:16.214Z,0.82
2022-12-12T18:56:46.731Z,0.81
2022-12-12T18:59:15.622Z,0.79
2022-12-12T19:01:44.224Z,0.71
2022-12-12T19:04:21.189Z,0.78
2022-12-12T19:06:53.483Z,0.77
2022-12-12T19:09:23.009Z,0.80
2022-12-12T19:11:54.247Z,0.80
2022-12-12T19:14:24.134Z,0.79
2022-12-12T19:16:52.139Z,0.80
2022-12-12T19:19:20.940Z,0.77
2022-12-12T19:21:49.934Z,0.80
2022-12-12T19:24:20.900Z,0.78
2022-12-12T19:26:50.046Z,0.83
2022-12-12T19:29:20.867Z,0.82
2022-12-12T19:31:52.662Z,0.70
2022-12-12T19:34:25.868Z,0.78
2022-12-12T19:36:54.808Z,0.84
2022-12-12T19:39:22.613Z,0.82
2022-12-12T19:41:50.473Z,0.83
2022-12-12T19:44:19.196Z,0.80
2022-12-12T19:46:47.936Z,0.79
2022-12-12T19:49:17.250Z,0.83
2022-12-12T19:51:45.943Z,0.80
2022-12-12T19:54:17.454Z,0.80
2022-12-12T19:56:46.093Z,0.80
2022-12-12T19:59:18.275Z,0.84
2022-12-12T20:01:47.284Z,0.79
2022-12-12T20:04:19.508Z,0.78
2022-12-12T20:06:49.598Z,0.81
2022-12-12T20:09:29.264Z,0.79
2022-12-12T20:12:00.709Z,0.78
2022-12-12T20:14:31.886Z,0.78
2022-12-12T20:17:00.346Z,0.77
2022-12-12T20:19:29.120Z,0.75
2022-12-12T20:22:02.188Z,0.78
2022-12-12T20:24:33.832Z,0.77
2022-12-12T20:27:03.923Z,0.79
2022-12-12T20:29:32.431Z,0.80
2022-12-12T20:32:01.616Z,0.82
2022-12-12T20:34:29.607Z,0.80
2022-12-12T20:36:58.937Z,0.82
2022-12-12T20:39:27.300Z,0.80
2022-12-12T20:41:56.859Z,0.79
2022-12-12T20:44:25.958Z,0.81
2022-12-12T20:46:54.061Z,0.80
2022-12-12T20:49:24.196Z,0.78
2022-12-12T20:51:57.709Z,0.79
2022-12-12T20:54:28.855Z,0.78
2022-12-12T20:56:58.926Z,0.78
2022-12-12T20:59:27.396Z,0.77
2022-12-12T21:01:55.403Z,0.77
2022-12-12T21:04:24.458Z,0.76
2022-12-12T21:06:52.490Z,0.76
2022-12-12T21:09:24.968Z,0.70
2022-12-12T21:11:58.676Z,0.75
2022-12-12T21:14:28.196Z,0.76
2022-12-12T21:16:57.123Z,0.79
2022-12-12T21:19:25.199Z,0.78
2022-12-12T21:21:53.695Z,0.77
2022-12-12T21:24:22.195Z,0.74
2022-12-12T21:26:50.633Z,0.70
2022-12-12T21:29:18.651Z,0.75
2022-12-12T21:31:51.722Z,0.76
2022-12-12T21:34:23.966Z,0.73
2022-12-12T21:36:56.128Z,0.73
2022-12-12T21:39:27.104Z,0.75
2022-12-12T21:41:56.649Z,0.77
2022-12-12T21:44:24.995Z,0.75
2022-12-12T21:46:53.196Z,0.72
2022-12-12T21:49:27.913Z,0.74
2022-12-12T21:51:58.796Z,0.70
2022-12-12T21:54:29.409Z,0.74
2022-12-12T21:56:59.353Z,0.75
2022-12-12T21:59:28.391Z,0.71
2022-12-12T22:02:00.915Z,0.72
2022-12-12T22:04:32.262Z,0.74
2022-12-12T22:07:00.096Z,0.68
2022-12-12T22:09:28.015Z,0.62
2022-12-12T22:12:03.994Z,0.70
2022-12-12T22:14:35.560Z,0.72
2022-12-12T22:17:05.509Z,0.73
2022-12-12T22:19:33.331Z,0.68
2022-12-12T22:22:01.326Z,0.68
2022-12-12T22:24:29.654Z,0.68
2022-12-12T22:26:57.510Z,0.72
2022-12-12T22:29:28.123Z,0.67
2022-12-12T22:31:56.423Z,0.70
2022-12-12T22:34:25.045Z,0.65
2022-12-12T22:36:53.939Z,0.66
2022-12-12T22:39:27.991Z,0.66
2022-12-12T22:41:57.235Z,0.66
2022-12-12T22:44:28.442Z,0.69
2022-12-12T22:46:56.383Z,0.69
2022-12-12T22:49:26.663Z,0.69
2022-12-12T22:51:57.741Z,0.70
2022-12-12T22:54:26.759Z,0.66
2022-12-12T22:56:55.251Z,0.70
2022-12-12T22:59:25.083Z,0.67
2022-12-12T23:01:53.133Z,0.65
2022-12-12T23:04:21.534Z,0.62
2022-12-12T23:06:49.410Z,0.67
2022-12-12T23:09:20.550Z,0.63
2022-12-12T23:11:50.126Z,0.62
2022-12-12T23:14:21.933Z,0.63
2022-12-12T23:16:51.315Z,0.60
2022-12-12T23:19:23.657Z,0.61
2022-12-12T23:21:52.159Z,0.66
2022-12-12T23:24:20.019Z,0.57
2022-12-12T23:26:51.339Z,0.64
2022-12-12T23:29:20.961Z,0.65
2022-12-12T23:31:49.607Z,0.61
2022-12-12T23:34:23.245Z,0.63
2022-12-12T23:36:54.242Z,0.62
2022-12-12T23:39:23.914Z,0.58
2022-12-12T23:41:52.406Z,0.58
2022-12-12T23:44:22.626Z,0.60
2022-12-12T23:46:50.875Z,0.56
2022-12-12T23:49:24.609Z,0.61
2022-12-12T23:51:58.249Z,0.58
2022-12-12T23:54:35.465Z,0.60
2022-12-12T23:57:03.853Z,0.57
2022-12-12T23:59:32.131Z,0.52
